Terminal Aerodrome Forecast
Issued by NWS

Current Version | Previous Version | Graphics & Text | Print | Product List | Glossary On
Versions: 1 2 3 4 5 6 7 8 9 10 11 12 13 14 15 16 17 18 19 20
000
FTUS41 KILN 241130
TAFLUK
TAF
KLUK 241130Z 2412/2512 19010KT P6SM SCT100 WS020/21040KT
     FM241400 19012G20KT P6SM SCT035
     FM241600 19014G25KT P6SM SCT040
     FM250000 20012G20KT 5SM -SHRA VCTS SCT035CB OVC050
     FM250500 26014G21KT P6SM VCSH OVC028
     FM250700 28014G22KT P6SM BKN028=

USA.gov is the U.S. government's official web portal to all federal, state and local government web resources and services.